createdAt,value
2018-11-26T00:00:20.595Z,86.85
2018-11-26T00:02:49.126Z,86.17
2018-11-26T00:05:17.514Z,86.21
2018-11-26T00:07:45.929Z,86.68
2018-11-26T00:10:25.957Z,86.00
2018-11-26T00:12:54.323Z,85.88
2018-11-26T00:15:22.699Z,86.48
2018-11-26T00:17:51.123Z,85.90
2018-11-26T00:20:19.573Z,86.59
2018-11-26T00:22:47.979Z,86.36
2018-11-26T00:25:16.339Z,86.56
2018-11-26T00:27:44.713Z,86.71
2018-11-26T00:30:13.100Z,86.87
2018-11-26T00:32:41.521Z,86.12
2018-11-26T00:35:10.050Z,86.16
2018-11-26T00:37:38.421Z,85.68
2018-11-26T00:40:09.369Z,85.82
2018-11-26T00:42:37.787Z,85.29
2018-11-26T00:45:07.556Z,86.17
2018-11-26T00:47:35.972Z,86.12
2018-11-26T00:50:04.426Z,85.86
2018-11-26T00:52:32.798Z,86.27
2018-11-26T00:55:01.147Z,85.86
2018-11-26T00:57:29.592Z,85.16
2018-11-26T00:59:57.949Z,85.03
2018-11-26T01:02:26.347Z,84.40
2018-11-26T01:04:54.701Z,83.77
2018-11-26T01:07:23.117Z,83.59
2018-11-26T01:09:51.572Z,83.67
2018-11-26T01:12:19.959Z,84.35
2018-11-26T01:14:48.346Z,84.38
2018-11-26T01:17:16.707Z,84.78
2018-11-26T01:19:45.082Z,85.49
2018-11-26T01:22:13.461Z,85.93
2018-11-26T01:24:41.872Z,86.44
2018-11-26T01:27:10.230Z,86.08
2018-11-26T01:29:38.638Z,85.21
2018-11-26T01:32:07.099Z,85.75
2018-11-26T01:34:35.516Z,86.19
2018-11-26T01:37:03.960Z,86.22
2018-11-26T01:39:32.376Z,85.41
2018-11-26T01:42:00.821Z,85.54
2018-11-26T01:44:29.210Z,85.30
2018-11-26T01:46:57.580Z,85.97
2018-11-26T01:49:25.970Z,85.91
2018-11-26T01:51:54.336Z,85.35
2018-11-26T01:54:22.755Z,85.58
2018-11-26T01:56:51.186Z,84.87
2018-11-26T01:59:19.606Z,85.31
2018-11-26T02:01:48.059Z,85.26
2018-11-26T02:04:16.460Z,85.39
2018-11-26T02:06:44.818Z,84.86
2018-11-26T02:09:13.199Z,85.33
2018-11-26T02:11:41.566Z,85.48
2018-11-26T02:14:09.969Z,85.19
2018-11-26T02:16:38.326Z,85.16
2018-11-26T02:19:06.750Z,85.78
2018-11-26T02:21:35.126Z,86.21
2018-11-26T02:24:03.584Z,86.11
2018-11-26T02:26:31.995Z,86.67
2018-11-26T02:29:00.444Z,86.86
2018-11-26T02:31:28.822Z,86.55
2018-11-26T02:33:57.194Z,87.03
2018-11-26T02:36:25.585Z,87.18
2018-11-26T02:38:53.960Z,86.98
2018-11-26T02:41:22.346Z,86.91
2018-11-26T02:43:50.723Z,86.65
2018-11-26T02:46:19.117Z,86.44
2018-11-26T02:48:47.470Z,86.51
2018-11-26T02:51:15.880Z,86.74
2018-11-26T02:53:44.330Z,86.89
2018-11-26T02:56:12.711Z,86.62
2018-11-26T02:58:41.077Z,86.40
2018-11-26T03:01:09.491Z,86.16
2018-11-26T03:03:37.855Z,86.14
2018-11-26T03:06:06.259Z,86.25
2018-11-26T03:08:34.710Z,86.39
2018-11-26T03:11:03.106Z,86.55
2018-11-26T03:13:31.466Z,86.81
2018-11-26T03:15:59.848Z,87.13
2018-11-26T03:18:28.227Z,86.81
2018-11-26T03:20:56.626Z,87.18
2018-11-26T03:23:24.987Z,86.87
2018-11-26T03:25:53.342Z,86.83
2018-11-26T03:28:21.718Z,86.69
2018-11-26T03:30:50.125Z,86.95
2018-11-26T03:33:18.515Z,86.66
2018-11-26T03:35:46.891Z,87.02
2018-11-26T03:38:16.966Z,86.86
2018-11-26T03:40:45.309Z,86.91
2018-11-26T03:43:13.694Z,86.92
2018-11-26T03:45:42.051Z,86.88
2018-11-26T03:48:10.450Z,86.89
2018-11-26T03:50:38.797Z,87.27
2018-11-26T03:53:07.203Z,87.31
2018-11-26T03:55:35.573Z,87.41
2018-11-26T03:58:03.970Z,87.34
2018-11-26T04:00:32.336Z,87.30
2018-11-26T04:03:00.718Z,87.24
2018-11-26T04:05:29.078Z,87.31
2018-11-26T04:07:57.478Z,87.50
2018-11-26T04:10:25.838Z,87.64
2018-11-26T04:12:54.238Z,87.77
2018-11-26T04:15:22.604Z,87.51
2018-11-26T04:17:50.999Z,87.57
2018-11-26T04:20:19.358Z,87.55
2018-11-26T04:22:47.758Z,87.67
2018-11-26T04:25:16.118Z,87.76
2018-11-26T04:27:44.511Z,87.91
2018-11-26T04:30:12.883Z,87.82
2018-11-26T04:32:41.447Z,87.65
2018-11-26T04:35:10.279Z,87.60
2018-11-26T04:37:38.658Z,87.19
2018-11-26T04:40:09.050Z,87.03
2018-11-26T04:42:37.470Z,86.96
2018-11-26T04:45:07.447Z,87.17
2018-11-26T04:47:35.863Z,87.17
2018-11-26T04:50:04.651Z,87.24
2018-11-26T04:52:33.030Z,87.08
2018-11-26T04:55:01.399Z,87.04
2018-11-26T04:57:29.879Z,87.05
2018-11-26T04:59:58.259Z,87.30
2018-11-26T05:02:26.667Z,87.06
2018-11-26T05:04:55.164Z,86.42
2018-11-26T05:07:23.617Z,86.80
2018-11-26T05:09:51.964Z,87.14
2018-11-26T05:12:20.366Z,87.05
2018-11-26T05:14:48.730Z,86.96
2018-11-26T05:17:17.126Z,86.65
2018-11-26T05:19:45.492Z,86.42
2018-11-26T05:22:13.894Z,86.31
2018-11-26T05:24:42.246Z,86.69
2018-11-26T05:27:10.659Z,86.82
2018-11-26T05:29:39.030Z,86.54
2018-11-26T05:32:07.451Z,86.34
2018-11-26T05:34:35.886Z,86.87
2018-11-26T05:37:04.259Z,86.83
2018-11-26T05:39:32.648Z,87.04
2018-11-26T05:42:01.009Z,86.42
2018-11-26T05:44:29.377Z,86.53
2018-11-26T05:46:57.771Z,86.28
2018-11-26T05:49:26.162Z,86.87
2018-11-26T05:51:54.521Z,86.98
2018-11-26T05:54:22.935Z,87.17
2018-11-26T05:56:51.386Z,86.76
2018-11-26T05:59:19.885Z,86.98
2018-11-26T06:01:48.234Z,86.85
2018-11-26T06:04:16.741Z,87.61
2018-11-26T06:06:45.103Z,87.48
2018-11-26T06:09:13.514Z,87.66
2018-11-26T06:11:42.128Z,87.82
2018-11-26T06:14:10.550Z,87.49
2018-11-26T06:16:39.039Z,87.83
2018-11-26T06:19:07.613Z,87.97
2018-11-26T06:21:36.115Z,87.95
2018-11-26T06:24:04.554Z,87.95
2018-11-26T06:26:32.923Z,87.96
2018-11-26T06:29:01.474Z,87.97
2018-11-26T06:31:29.844Z,88.01
2018-11-26T06:33:58.330Z,87.88
2018-11-26T06:36:26.689Z,87.97
2018-11-26T06:38:55.485Z,87.89
2018-11-26T06:41:23.878Z,88.31
2018-11-26T06:43:52.247Z,88.52
2018-11-26T06:46:21.089Z,89.64
2018-11-26T06:48:49.463Z,89.68
2018-11-26T06:51:17.909Z,89.43
2018-11-26T06:53:46.278Z,89.96
2018-11-26T06:56:14.655Z,89.73
2018-11-26T06:58:43.081Z,90.05
2018-11-26T07:01:11.643Z,89.75
2018-11-26T07:03:40.011Z,90.30
2018-11-26T07:06:08.412Z,91.08
2018-11-26T07:08:36.854Z,90.65
2018-11-26T07:11:05.475Z,90.19
2018-11-26T07:13:33.923Z,90.22
2018-11-26T07:16:02.311Z,89.84
2018-11-26T07:18:30.682Z,90.47
2018-11-26T07:20:59.185Z,90.49
2018-11-26T07:23:27.547Z,90.75
2018-11-26T07:25:55.937Z,91.14
2018-11-26T07:28:24.289Z,91.03
2018-11-26T07:30:52.702Z,90.39
2018-11-26T07:33:21.063Z,90.28
2018-11-26T07:35:49.458Z,90.13
2018-11-26T07:38:17.823Z,90.18
2018-11-26T07:40:46.235Z,89.92
2018-11-26T07:43:14.998Z,89.47
2018-11-26T07:45:43.399Z,89.34
2018-11-26T07:48:12.471Z,89.73
2018-11-26T07:50:40.933Z,89.90
2018-11-26T07:53:10.201Z,89.96
2018-11-26T07:55:39.352Z,89.75
2018-11-26T07:58:07.777Z,89.37
2018-11-26T08:00:36.260Z,88.69
2018-11-26T08:03:04.723Z,89.18
2018-11-26T08:05:33.182Z,88.64
2018-11-26T08:08:01.571Z,88.72
2018-11-26T08:10:29.934Z,88.67
2018-11-26T08:12:58.341Z,88.38
2018-11-26T08:15:27.885Z,88.46
2018-11-26T08:17:56.304Z,88.21
2018-11-26T08:20:24.693Z,88.12
2018-11-26T08:22:53.105Z,88.06
2018-11-26T08:25:22.728Z,87.70
2018-11-26T08:27:51.647Z,88.14
2018-11-26T08:30:22.236Z,87.77
2018-11-26T08:32:54.575Z,88.00
2018-11-26T08:35:22.952Z,87.23
2018-11-26T08:37:57.387Z,87.38
2018-11-26T08:40:27.947Z,87.35
2018-11-26T08:43:02.821Z,86.81
2018-11-26T08:45:37.572Z,86.97
2018-11-26T08:48:11.883Z,86.94
2018-11-26T08:50:40.310Z,87.16
2018-11-26T08:53:08.750Z,87.05
2018-11-26T08:55:37.119Z,86.69
2018-11-26T08:58:06.144Z,86.26
2018-11-26T09:00:34.604Z,86.45
2018-11-26T09:03:03.015Z,86.65
2018-11-26T09:05:40.843Z,86.56
2018-11-26T09:08:09.226Z,86.00
2018-11-26T09:10:37.634Z,85.99
2018-11-26T09:13:06.031Z,86.12
2018-11-26T09:15:34.399Z,85.66
2018-11-26T09:18:02.828Z,85.92
2018-11-26T09:20:31.287Z,85.12
2018-11-26T09:22:59.744Z,84.42
2018-11-26T09:25:28.119Z,84.96
2018-11-26T09:27:56.468Z,84.25
2018-11-26T09:30:24.929Z,83.53
2018-11-26T09:32:53.371Z,83.33
2018-11-26T09:35:21.792Z,83.13
2018-11-26T09:37:50.143Z,82.61
2018-11-26T09:40:18.538Z,81.86
2018-11-26T09:42:46.976Z,81.49
2018-11-26T09:45:17.336Z,80.65
2018-11-26T09:47:46.161Z,80.93
2018-11-26T09:50:15.821Z,80.75
2018-11-26T09:52:44.190Z,80.50
2018-11-26T09:55:13.569Z,80.08
2018-11-26T09:57:41.979Z,79.63
2018-11-26T10:00:12.723Z,79.39
2018-11-26T10:02:41.616Z,79.24
2018-11-26T10:05:26.525Z,79.09
2018-11-26T10:07:54.872Z,78.84
2018-11-26T10:10:23.257Z,78.30
2018-11-26T10:12:51.714Z,78.16
2018-11-26T10:15:22.168Z,77.60
2018-11-26T10:17:50.773Z,77.40
2018-11-26T10:20:19.147Z,77.33
2018-11-26T10:22:48.185Z,77.37
2018-11-26T10:25:18.646Z,77.22
2018-11-26T10:27:47.215Z,77.19
2018-11-26T10:30:21.095Z,77.42
2018-11-26T10:32:50.674Z,77.06
2018-11-26T10:35:19.808Z,77.39
2018-11-26T10:37:48.231Z,77.33
2018-11-26T10:40:21.167Z,77.34
2018-11-26T10:47:48.151Z,75.98
2018-11-26T10:50:20.942Z,75.86
2018-11-26T10:52:54.458Z,75.94
2018-11-26T10:55:26.340Z,75.90
2018-11-26T10:57:54.727Z,75.79
2018-11-26T11:00:28.439Z,74.92
2018-11-26T11:02:56.879Z,74.48
2018-11-26T11:05:25.286Z,74.22
2018-11-26T11:07:53.771Z,74.02
2018-11-26T11:10:27.117Z,74.22
2018-11-26T11:12:55.511Z,73.73
2018-11-26T11:15:23.875Z,73.80
2018-11-26T11:17:52.261Z,74.14
2018-11-26T11:20:22.663Z,73.35
2018-11-26T11:22:51.136Z,73.61
2018-11-26T11:25:20.131Z,73.03
2018-11-26T11:27:48.859Z,72.34
2018-11-26T11:30:22.132Z,72.49
2018-11-26T11:32:50.549Z,72.13
2018-11-26T11:35:19.196Z,72.15
2018-11-26T11:37:48.636Z,71.97
2018-11-26T11:40:27.120Z,72.45
2018-11-26T11:42:55.863Z,72.22
2018-11-26T11:45:24.662Z,72.36
2018-11-26T11:47:53.145Z,72.09
2018-11-26T11:50:22.176Z,71.85
2018-11-26T11:52:50.877Z,71.22
2018-11-26T11:55:23.318Z,70.97
2018-11-26T11:57:52.120Z,70.47
2018-11-26T12:00:44.921Z,70.07
2018-11-26T12:03:15.652Z,69.79
2018-11-26T12:05:44.008Z,69.01
2018-11-26T12:08:12.449Z,68.49
2018-11-26T12:10:40.888Z,68.31
2018-11-26T12:13:11.137Z,68.32
2018-11-26T12:15:41.027Z,68.07
2018-11-26T12:18:10.342Z,68.01
2018-11-26T12:20:38.740Z,67.43
2018-11-26T12:23:07.329Z,66.80
2018-11-26T12:25:35.781Z,67.33
2018-11-26T12:28:04.198Z,67.33
2018-11-26T12:30:34.279Z,66.58
2018-11-26T12:33:02.701Z,66.33
2018-11-26T12:35:31.140Z,66.69
2018-11-26T12:37:59.501Z,66.69
2018-11-26T12:40:27.884Z,66.47
2018-11-26T12:42:57.384Z,66.74
2018-11-26T12:45:28.667Z,66.48
2018-11-26T12:47:57.206Z,66.45
2018-11-26T12:50:25.676Z,65.88
2018-11-26T12:52:54.753Z,66.00
2018-11-26T12:55:23.834Z,65.69
2018-11-26T12:57:52.971Z,65.67
2018-11-26T13:00:22.497Z,65.67
2018-11-26T13:03:00.116Z,65.55
2018-11-26T13:05:28.529Z,65.40
2018-11-26T13:07:56.972Z,66.14
2018-11-26T13:10:25.401Z,66.10
2018-11-26T13:12:53.983Z,66.45
2018-11-26T13:15:23.356Z,66.52
2018-11-26T13:17:51.711Z,66.59
2018-11-26T13:20:22.570Z,66.91
2018-11-26T13:22:51.462Z,67.04
2018-11-26T13:25:20.983Z,66.79
2018-11-26T13:27:57.271Z,66.74
2018-11-26T13:30:30.844Z,67.04
2018-11-26T13:33:00.332Z,67.05
2018-11-26T13:35:28.710Z,67.25
2018-11-26T13:37:57.192Z,67.41
2018-11-26T13:40:25.580Z,67.46
2018-11-26T13:42:53.954Z,67.55
2018-11-26T13:45:23.579Z,68.22
2018-11-26T13:47:52.045Z,67.78
2018-11-26T13:50:28.683Z,67.90
2018-11-26T13:52:57.190Z,68.16
2018-11-26T13:55:25.604Z,68.09
2018-11-26T13:57:54.065Z,68.01
2018-11-26T14:00:22.480Z,67.63
2018-11-26T14:02:50.845Z,67.82
2018-11-26T14:05:19.797Z,67.82
2018-11-26T14:07:48.407Z,68.07
2018-11-26T14:10:19.850Z,67.80
2018-11-26T14:12:52.839Z,67.87
2018-11-26T14:15:21.249Z,67.81
2018-11-26T14:17:50.667Z,67.76
2018-11-26T14:20:19.114Z,67.71
2018-11-26T14:22:47.527Z,67.94
2018-11-26T14:25:17.008Z,67.96
2018-11-26T14:27:45.960Z,68.57
2018-11-26T14:30:18.349Z,68.36
2018-11-26T14:32:46.781Z,68.65
2018-11-26T14:35:15.224Z,68.86
2018-11-26T14:37:43.860Z,68.84
2018-11-26T14:40:20.655Z,69.45
2018-11-26T14:42:49.107Z,68.91
2018-11-26T14:45:17.585Z,69.05
2018-11-26T14:47:46.120Z,69.13
2018-11-26T14:50:15.539Z,69.30
2018-11-26T14:52:46.099Z,69.55
2018-11-26T14:55:22.384Z,69.63
2018-11-26T14:57:50.798Z,69.64
2018-11-26T15:00:19.967Z,70.05
2018-11-26T15:02:48.432Z,70.46
2018-11-26T15:05:16.918Z,70.46
2018-11-26T15:07:45.689Z,70.90
2018-11-26T15:10:17.112Z,71.11
2018-11-26T15:12:45.925Z,71.06
2018-11-26T15:15:15.564Z,70.65
2018-11-26T15:17:44.620Z,71.11
2018-11-26T15:20:18.212Z,71.51
2018-11-26T15:22:46.838Z,71.13
2018-11-26T15:25:18.352Z,71.46
2018-11-26T15:27:46.771Z,71.72
2018-11-26T15:30:16.390Z,72.03
2018-11-26T15:32:44.939Z,71.68
2018-11-26T15:35:16.228Z,72.03
2018-11-26T15:37:44.745Z,71.91
2018-11-26T15:40:14.155Z,72.12
2018-11-26T15:42:42.684Z,72.40
2018-11-26T15:45:13.380Z,71.77
2018-11-26T15:47:41.776Z,72.75
2018-11-26T15:50:10.340Z,72.76
2018-11-26T15:52:38.796Z,72.59
2018-11-26T15:55:12.736Z,72.83
2018-11-26T15:57:41.199Z,73.09
2018-11-26T16:00:12.267Z,73.33
2018-11-26T16:02:40.665Z,73.50
2018-11-26T16:05:10.868Z,73.64
2018-11-26T16:07:40.039Z,73.74
2018-11-26T16:10:10.186Z,73.67
2018-11-26T16:12:38.609Z,73.30
2018-11-26T16:15:16.796Z,74.13
2018-11-26T16:17:45.211Z,74.01
2018-11-26T16:20:15.929Z,74.53
2018-11-26T16:22:44.361Z,74.55
2018-11-26T16:25:17.164Z,74.43
2018-11-26T16:27:45.513Z,74.64
2018-11-26T16:30:15.971Z,74.88
2018-11-26T16:32:47.907Z,74.80
2018-11-26T16:35:17.738Z,74.89
2018-11-26T16:37:46.115Z,75.62
2018-11-26T16:40:16.460Z,75.48
2018-11-26T16:42:44.833Z,75.91
2018-11-26T16:45:14.547Z,75.64
2018-11-26T16:47:43.405Z,75.97
2018-11-26T16:50:13.035Z,76.15
2018-11-26T16:52:41.440Z,76.07
2018-11-26T16:55:12.218Z,76.24
2018-11-26T16:57:40.708Z,76.28
2018-11-26T17:00:40.075Z,76.96
2018-11-26T17:03:08.516Z,76.71
2018-11-26T17:05:39.424Z,76.87
2018-11-26T17:08:09.262Z,77.33
2018-11-26T17:10:37.655Z,77.25
2018-11-26T17:13:06.411Z,77.80
2018-11-26T17:15:34.796Z,77.57
2018-11-26T17:18:04.286Z,77.49
2018-11-26T17:20:32.715Z,78.19
2018-11-26T17:23:01.182Z,78.19
2018-11-26T17:25:29.575Z,78.47
2018-11-26T17:27:57.948Z,78.69
2018-11-26T17:30:27.435Z,78.81
2018-11-26T17:33:02.243Z,78.94
2018-11-26T17:35:31.218Z,79.06
2018-11-26T17:37:59.643Z,79.42
2018-11-26T17:40:28.221Z,79.61
2018-11-26T17:42:56.844Z,79.30
2018-11-26T17:45:25.909Z,79.86
2018-11-26T17:47:56.347Z,79.36
2018-11-26T17:50:31.271Z,79.55
2018-11-26T17:52:59.656Z,80.83
2018-11-26T17:55:28.039Z,81.40
2018-11-26T17:57:56.406Z,82.41
2018-11-26T18:00:27.362Z,82.27
2018-11-26T18:02:55.751Z,81.71
2018-11-26T18:05:25.560Z,81.64
2018-11-26T18:07:57.628Z,81.35
2018-11-26T18:10:25.993Z,81.46
2018-11-26T18:12:54.464Z,81.56
2018-11-26T18:15:22.860Z,81.46
2018-11-26T18:17:51.247Z,81.67
2018-11-26T18:20:20.842Z,81.80
2018-11-26T18:22:52.410Z,81.80
2018-11-26T18:25:21.296Z,82.20
2018-11-26T18:27:56.283Z,82.29
2018-11-26T18:30:27.668Z,82.39
2018-11-26T18:32:56.091Z,82.51
2018-11-26T18:35:24.538Z,82.92
2018-11-26T18:37:52.939Z,82.85
2018-11-26T18:40:21.299Z,82.70
2018-11-26T18:42:49.993Z,82.37
2018-11-26T18:45:19.084Z,82.63
2018-11-26T18:47:47.975Z,83.04
2018-11-26T18:50:17.460Z,83.36
2018-11-26T18:52:46.515Z,82.90
2018-11-26T18:55:14.960Z,82.64
2018-11-26T18:57:43.568Z,83.12
2018-11-26T19:00:15.193Z,82.87
2018-11-26T19:02:43.660Z,82.95
2018-11-26T19:05:13.083Z,82.58
2018-11-26T19:07:41.459Z,82.91
2018-11-26T19:10:12.179Z,82.75
2018-11-26T19:12:40.909Z,82.99
2018-11-26T19:15:12.140Z,83.05
2018-11-26T19:17:40.646Z,82.58
2018-11-26T19:20:11.756Z,83.10
2018-11-26T19:22:40.682Z,82.90
2018-11-26T19:25:11.470Z,83.09
2018-11-26T19:27:39.884Z,83.47
2018-11-26T19:30:12.046Z,83.85
2018-11-26T19:32:40.737Z,84.20
2018-11-26T19:35:10.633Z,83.32
2018-11-26T19:37:39.040Z,83.63
2018-11-26T19:40:12.713Z,83.68
2018-11-26T19:42:41.942Z,83.90
2018-11-26T19:45:18.963Z,84.20
2018-11-26T19:47:48.901Z,84.13
2018-11-26T19:50:18.743Z,84.47
2018-11-26T19:52:48.375Z,84.25
2018-11-26T19:55:20.801Z,84.21
2018-11-26T19:57:49.415Z,84.04
2018-11-26T20:00:19.306Z,84.14
2018-11-26T20:02:55.513Z,83.94
2018-11-26T20:05:57.695Z,83.85
2018-11-26T20:08:26.187Z,83.72
2018-11-26T20:10:54.722Z,84.09
2018-11-26T20:13:23.249Z,84.24
2018-11-26T20:15:52.903Z,84.44
2018-11-26T20:18:20.809Z,84.25
2018-11-26T20:20:49.407Z,84.68
2018-11-26T20:23:17.972Z,84.39
2018-11-26T20:25:46.344Z,83.98
2018-11-26T20:28:14.828Z,84.26
2018-11-26T20:30:43.295Z,84.52
2018-11-26T20:33:11.776Z,84.51
2018-11-26T20:35:40.223Z,84.38
2018-11-26T20:38:10.241Z,84.58
2018-11-26T20:40:38.691Z,84.35
2018-11-26T20:43:09.184Z,84.63
2018-11-26T20:45:38.610Z,84.28
2018-11-26T20:48:08.015Z,84.78
2018-11-26T20:50:36.510Z,84.71
2018-11-26T20:53:04.951Z,84.68
2018-11-26T20:55:33.459Z,84.91
2018-11-26T20:58:01.907Z,84.73
2018-11-26T21:00:30.678Z,84.82
2018-11-26T21:03:05.816Z,84.85
2018-11-26T21:05:34.389Z,84.25
2018-11-26T21:08:02.840Z,84.31
2018-11-26T21:10:31.312Z,84.31
2018-11-26T21:12:59.713Z,84.31
2018-11-26T21:15:28.188Z,84.02
2018-11-26T21:17:57.661Z,83.74
2018-11-26T21:20:45.421Z,84.24
2018-11-26T21:23:15.829Z,84.56
2018-11-26T21:25:44.324Z,84.47
2018-11-26T21:28:13.473Z,85.04
2018-11-26T21:30:42.004Z,85.16
2018-11-26T21:33:10.468Z,85.53
2018-11-26T21:35:39.009Z,85.15
2018-11-26T21:38:09.048Z,85.06
2018-11-26T21:40:38.268Z,84.71
2018-11-26T21:43:07.156Z,84.90
2018-11-26T21:45:38.641Z,84.88
2018-11-26T21:48:07.105Z,84.66
2018-11-26T21:50:35.711Z,84.77
2018-11-26T21:53:04.165Z,84.72
2018-11-26T21:55:32.663Z,84.55
2018-11-26T21:58:01.025Z,85.45
2018-11-26T22:00:30.681Z,84.92
2018-11-26T22:03:03.489Z,84.79
2018-11-26T22:05:32.460Z,85.08
2018-11-26T22:08:01.573Z,85.17
2018-11-26T22:10:30.108Z,85.23
2018-11-26T22:12:58.539Z,85.15
2018-11-26T22:15:27.109Z,85.18
2018-11-26T22:17:55.564Z,85.35
2018-11-26T22:20:27.372Z,85.63
2018-11-26T22:22:55.875Z,85.28
2018-11-26T22:25:24.408Z,85.52
2018-11-26T22:27:53.616Z,85.90
2018-11-26T22:30:28.580Z,85.82
2018-11-26T22:32:57.134Z,86.07
2018-11-26T22:35:25.574Z,86.10
2018-11-26T22:37:54.038Z,86.44
2018-11-26T22:40:23.926Z,86.63
2018-11-26T22:42:52.595Z,86.73
2018-11-26T22:45:24.574Z,87.09
2018-11-26T22:47:59.334Z,86.81
2018-11-26T22:50:27.864Z,86.81
2018-11-26T22:52:56.305Z,87.01
2018-11-26T22:55:24.812Z,86.92
2018-11-26T22:57:53.249Z,87.27
2018-11-26T23:00:28.284Z,86.92
2018-11-26T23:02:57.897Z,87.03
2018-11-26T23:05:26.392Z,86.98
2018-11-26T23:07:54.923Z,87.04
2018-11-26T23:10:23.383Z,87.06
2018-11-26T23:12:51.832Z,87.46
2018-11-26T23:15:20.462Z,87.44
2018-11-26T23:17:49.268Z,87.86
2018-11-26T23:20:19.617Z,87.20
2018-11-26T23:22:48.143Z,87.69
2018-11-26T23:25:18.007Z,87.42
2018-11-26T23:27:46.456Z,87.42
2018-11-26T23:30:26.348Z,88.07
2018-11-26T23:32:56.902Z,87.97
2018-11-26T23:35:25.503Z,87.62
2018-11-26T23:37:54.072Z,87.70
2018-11-26T23:40:22.580Z,87.62
2018-11-26T23:42:51.460Z,87.53
2018-11-26T23:45:20.952Z,87.32
2018-11-26T23:47:49.433Z,87.25
2018-11-26T23:50:18.201Z,87.43
2018-11-26T23:52:47.069Z,87.39
2018-11-26T23:55:17.516Z,87.10
2018-11-26T23:57:45.898Z,87.10
